createdAt,value
2019-01-11T00:01:42.263Z,-0.66
2019-01-11T00:04:46.980Z,-0.70
2019-01-11T00:07:51.812Z,-0.74
2019-01-11T00:10:56.552Z,-0.74
2019-01-11T00:14:01.272Z,-0.72
2019-01-11T00:17:06.108Z,-0.66
2019-01-11T00:20:12.668Z,-0.59
2019-01-11T00:23:17.117Z,-0.58
2019-01-11T00:26:21.578Z,-0.69
2019-01-11T00:29:26.366Z,-0.59
2019-01-11T00:32:31.088Z,-0.61
2019-01-11T00:35:35.525Z,-0.59
2019-01-11T00:38:40.241Z,-0.56
2019-01-11T00:41:44.687Z,-0.53
2019-01-11T00:44:49.139Z,-0.55
2019-01-11T00:47:53.582Z,-0.69
2019-01-11T00:50:58.340Z,-0.63
2019-01-11T00:54:02.796Z,-0.61
2019-01-11T00:57:07.241Z,-0.62
2019-01-11T01:00:21.689Z,-0.63
2019-01-11T01:03:26.126Z,-0.72
2019-01-11T01:06:30.907Z,-0.78
2019-01-11T01:09:35.638Z,-0.79
2019-01-11T01:12:40.550Z,-0.74
2019-01-11T01:15:44.986Z,-0.74
2019-01-11T01:18:49.730Z,-0.77
2019-01-11T01:21:54.165Z,-0.76
2019-01-11T01:24:58.615Z,-0.30
2019-01-11T01:28:03.712Z,-0.35
2019-01-11T01:31:08.229Z,-0.45
2019-01-11T01:34:12.974Z,-0.56
2019-01-11T01:37:17.414Z,-0.25
2019-01-11T01:40:21.862Z,-0.26
2019-01-11T01:43:26.655Z,-0.33
2019-01-11T01:46:31.384Z,-0.12
2019-01-11T01:49:35.830Z,-0.10
2019-01-11T01:52:40.471Z,-0.05
2019-01-11T01:55:44.917Z,-0.17
2019-01-11T01:58:49.362Z,-0.23
2019-01-11T02:01:54.123Z,-0.15
2019-01-11T02:04:58.846Z,-0.17
2019-01-11T02:08:03.699Z,-0.02
2019-01-11T02:11:08.414Z,-0.02
2019-01-11T02:14:13.137Z,-0.06
2019-01-11T02:17:18.793Z,-0.07
2019-01-11T02:20:23.251Z,-0.19
2019-01-11T02:23:27.699Z,-0.25
2019-01-11T02:26:32.161Z,-0.39
2019-01-11T02:29:36.898Z,-0.47
2019-01-11T02:32:41.344Z,-0.39
2019-01-11T02:35:45.796Z,-0.18
2019-01-11T02:38:50.238Z,-0.28
2019-01-11T02:41:54.684Z,-0.46
2019-01-11T02:44:59.141Z,-0.53
2019-01-11T02:48:03.964Z,-0.48
2019-01-11T02:51:08.414Z,-0.39
2019-01-11T02:54:12.873Z,-0.37
2019-01-11T02:57:17.384Z,-0.49
2019-01-11T03:00:22.312Z,-0.57
2019-01-11T03:03:26.751Z,-0.54
2019-01-11T03:06:31.197Z,-0.57
2019-01-11T03:09:35.644Z,-0.54
2019-01-11T03:12:40.367Z,-0.51
2019-01-11T03:15:44.817Z,-0.40
2019-01-11T03:18:49.648Z,-0.37
2019-01-11T03:21:54.084Z,-0.33
2019-01-11T03:24:58.541Z,-0.26
2019-01-11T03:28:02.980Z,-0.25
2019-01-11T03:31:09.073Z,-0.21
2019-01-11T03:34:13.528Z,-0.20
2019-01-11T03:37:17.993Z,-0.16
2019-01-11T03:40:23.341Z,-0.05
2019-01-11T03:43:28.081Z,-0.05
2019-01-11T03:46:32.808Z,-0.08
2019-01-11T03:49:37.267Z,-0.15
2019-01-11T03:52:41.714Z,-0.12
2019-01-11T03:55:46.156Z,-0.16
2019-01-11T03:58:50.598Z,-0.17
2019-01-11T04:01:55.059Z,-0.20
2019-01-11T04:04:59.509Z,-0.23
2019-01-11T04:08:03.958Z,-0.27
2019-01-11T04:11:08.715Z,-0.26
2019-01-11T04:14:13.165Z,-0.04
2019-01-11T04:17:17.612Z,-0.16
2019-01-11T04:20:22.063Z,-0.21
2019-01-11T04:23:26.498Z,-0.45
2019-01-11T04:26:30.946Z,-0.60
2019-01-11T04:29:35.658Z,-0.62
2019-01-11T04:32:40.100Z,-0.53
2019-01-11T04:35:44.547Z,-0.67
2019-01-11T04:38:48.990Z,-0.64
2019-01-11T04:41:53.769Z,-0.69
2019-01-11T04:44:58.494Z,-0.67
2019-01-11T04:48:02.941Z,-0.63
2019-01-11T04:51:07.379Z,-0.57
2019-01-11T04:54:11.812Z,-0.53
2019-01-11T04:57:16.602Z,-0.38
2019-01-11T05:00:22.183Z,-0.46
2019-01-11T05:03:26.620Z,-0.46
2019-01-11T05:06:31.405Z,-0.40
2019-01-11T05:09:35.844Z,-0.41
2019-01-11T05:12:40.291Z,-0.33
2019-01-11T05:15:44.739Z,-0.32
2019-01-11T05:18:49.183Z,-0.28
2019-01-11T05:21:53.936Z,-0.28
2019-01-11T05:24:58.372Z,-0.30
2019-01-11T05:28:03.133Z,-0.26
2019-01-11T05:31:07.597Z,-0.33
2019-01-11T05:34:12.038Z,-0.40
2019-01-11T05:37:16.488Z,-0.35
2019-01-11T05:40:20.927Z,-0.43
2019-01-11T05:43:25.720Z,-0.38
2019-01-11T05:46:30.169Z,-0.37
2019-01-11T05:49:34.616Z,-0.40
2019-01-11T05:52:39.073Z,-0.48
2019-01-11T05:55:45.157Z,-0.45
2019-01-11T05:58:51.521Z,-0.45
2019-01-11T06:01:55.972Z,-0.46
2019-01-11T06:05:01.189Z,-0.52
2019-01-11T06:08:07.577Z,-0.58
2019-01-11T06:11:12.020Z,-0.46
2019-01-11T06:14:16.458Z,-0.30
2019-01-11T06:17:21.236Z,-0.26
2019-01-11T06:20:30.245Z,-0.11
2019-01-11T06:23:32.137Z,-0.07
2019-01-11T06:26:36.585Z,-0.06
2019-01-11T06:29:41.798Z,-0.06
2019-01-11T06:32:46.534Z,-0.08
2019-01-11T06:35:51.065Z,-0.03
2019-01-11T06:38:55.496Z,-0.05
2019-01-11T06:42:01.596Z,0.02
2019-01-11T06:45:09.845Z,0.03
2019-01-11T06:48:15.918Z,0.04
2019-01-11T06:51:20.651Z,0.09
2019-01-11T06:54:25.155Z,-0.01
2019-01-11T06:57:29.605Z,-0.06
2019-01-11T07:00:34.034Z,-0.04
2019-01-11T07:03:38.482Z,-0.03
2019-01-11T07:06:43.194Z,-0.07
2019-01-11T07:09:48.805Z,0.02
2019-01-11T07:12:53.263Z,0.16
2019-01-11T07:15:57.695Z,0.08
2019-01-11T07:19:02.133Z,0.03
2019-01-11T07:22:06.645Z,0.17
2019-01-11T07:25:14.524Z,0.15
2019-01-11T07:28:18.970Z,0.23
2019-01-11T07:31:23.880Z,0.22
2019-01-11T07:34:28.397Z,0.15
2019-01-11T07:37:32.840Z,0.19
2019-01-11T07:40:37.262Z,0.22
2019-01-11T07:43:41.987Z,0.28
2019-01-11T07:46:46.420Z,0.38
2019-01-11T07:49:50.857Z,0.44
2019-01-11T07:52:55.291Z,0.60
2019-01-11T07:55:59.736Z,0.56
2019-01-11T07:59:04.638Z,0.57
2019-01-11T08:02:09.069Z,0.62
2019-01-11T08:05:13.511Z,0.53
2019-01-11T08:08:17.951Z,0.56
2019-01-11T08:11:22.724Z,0.53
2019-01-11T08:14:27.556Z,0.52
2019-01-11T08:17:31.991Z,0.54
2019-01-11T08:20:36.431Z,0.65
2019-01-11T08:23:40.864Z,0.56
2019-01-11T08:26:45.554Z,0.50
2019-01-11T08:29:50.287Z,0.69
2019-01-11T08:32:55.013Z,0.81
2019-01-11T08:35:59.451Z,0.82
2019-01-11T08:39:06.554Z,0.90
2019-01-11T08:42:11.256Z,0.87
2019-01-11T08:45:16.131Z,0.73
2019-01-11T08:48:20.830Z,0.67
2019-01-11T08:51:25.267Z,0.60
2019-01-11T08:54:29.704Z,0.60
2019-01-11T08:57:34.135Z,0.78
2019-01-11T09:00:38.696Z,0.90
2019-01-11T09:03:43.269Z,0.93
2019-01-11T09:06:47.982Z,1.09
2019-01-11T09:09:52.418Z,1.27
2019-01-11T09:12:57.136Z,1.43
2019-01-11T09:16:01.569Z,1.53
2019-01-11T09:19:06.178Z,1.49
2019-01-11T09:22:10.614Z,1.53
2019-01-11T09:25:15.049Z,1.55
2019-01-11T09:28:19.475Z,1.57
2019-01-11T09:31:24.191Z,1.61
2019-01-11T09:34:28.642Z,1.54
2019-01-11T09:37:33.339Z,1.61
2019-01-11T09:40:37.776Z,1.70
2019-01-11T09:43:42.493Z,1.74
2019-01-11T09:46:47.232Z,1.66
2019-01-11T09:49:51.953Z,1.69
2019-01-11T09:52:56.685Z,1.74
2019-01-11T09:56:01.127Z,1.69
2019-01-11T09:59:05.626Z,1.72
2019-01-11T10:02:24.011Z,1.71
2019-01-11T10:05:28.559Z,1.72
2019-01-11T10:08:32.995Z,1.79
2019-01-11T10:11:37.773Z,1.68
2019-01-11T10:14:42.205Z,1.71
2019-01-11T10:17:48.281Z,1.69
2019-01-11T10:20:52.715Z,1.80
2019-01-11T10:23:57.145Z,1.90
2019-01-11T10:27:01.584Z,1.92
2019-01-11T10:30:22.316Z,1.78
2019-01-11T10:33:26.840Z,1.79
2019-01-11T10:36:31.273Z,1.95
2019-01-11T10:39:36.719Z,2.09
2019-01-11T10:42:41.261Z,2.08
2019-01-11T10:45:45.702Z,1.96
2019-01-11T10:48:50.405Z,2.08
2019-01-11T10:51:54.847Z,2.13
2019-01-11T10:54:59.273Z,2.10
2019-01-11T10:58:04.085Z,2.12
2019-01-11T11:01:08.526Z,2.11
2019-01-11T11:04:12.956Z,2.10
2019-01-11T11:07:17.391Z,2.06
2019-01-11T11:10:22.263Z,2.06
2019-01-11T11:13:26.704Z,1.99
2019-01-11T11:16:32.963Z,2.03
2019-01-11T11:19:37.625Z,1.95
2019-01-11T11:22:42.055Z,2.05
2019-01-11T11:25:46.767Z,2.05
2019-01-11T11:28:51.209Z,1.93
2019-01-11T11:31:55.926Z,2.02
2019-01-11T11:35:00.405Z,2.06
2019-01-11T11:38:05.283Z,2.09
2019-01-11T11:41:10.009Z,2.11
2019-01-11T11:44:14.440Z,2.18
2019-01-11T11:47:18.877Z,2.23
2019-01-11T11:50:23.705Z,2.26
2019-01-11T11:53:28.145Z,2.23
2019-01-11T11:56:32.848Z,2.27
2019-01-11T11:59:37.290Z,2.29
2019-01-11T12:02:42.002Z,2.36
2019-01-11T12:05:46.436Z,2.23
2019-01-11T12:08:51.156Z,2.19
2019-01-11T12:11:55.886Z,2.26
2019-01-11T12:15:00.319Z,2.19
2019-01-11T12:18:04.827Z,2.24
2019-01-11T12:21:09.256Z,2.25
2019-01-11T12:24:13.990Z,2.26
2019-01-11T12:27:18.428Z,2.29
2019-01-11T12:30:22.860Z,2.32
2019-01-11T12:33:27.302Z,2.30
2019-01-11T12:36:31.993Z,2.24
2019-01-11T12:39:36.728Z,2.23
2019-01-11T12:42:41.662Z,2.24
2019-01-11T12:45:46.100Z,2.19
2019-01-11T12:48:50.586Z,2.22
2019-01-11T12:51:55.017Z,2.14
2019-01-11T12:54:59.466Z,2.27
2019-01-11T12:58:04.180Z,2.19
2019-01-11T13:01:09.025Z,2.10
2019-01-11T13:04:13.460Z,1.96
2019-01-11T13:07:17.896Z,1.99
2019-01-11T13:10:22.472Z,1.82
2019-01-11T13:13:26.924Z,1.70
2019-01-11T13:16:31.654Z,1.81
2019-01-11T13:19:36.100Z,1.81
2019-01-11T13:22:40.672Z,1.86
2019-01-11T13:25:45.121Z,1.93
2019-01-11T13:28:49.555Z,1.84
2019-01-11T13:31:54.285Z,1.86
2019-01-11T13:34:58.728Z,1.99
2019-01-11T13:38:03.434Z,2.11
2019-01-11T13:41:07.881Z,2.11
2019-01-11T13:44:12.596Z,2.11
2019-01-11T13:47:17.095Z,2.11
2019-01-11T13:50:39.171Z,2.15
2019-01-11T13:53:43.598Z,2.16
2019-01-11T13:56:48.309Z,2.08
2019-01-11T13:59:52.763Z,2.02
2019-01-11T14:02:57.466Z,2.09
2019-01-11T14:06:01.903Z,2.00
2019-01-11T14:09:08.691Z,1.97
2019-01-11T14:12:13.120Z,1.92
2019-01-11T14:15:17.696Z,1.99
2019-01-11T14:18:22.128Z,2.00
2019-01-11T14:21:26.877Z,1.88
2019-01-11T14:24:31.609Z,2.00
2019-01-11T14:27:36.440Z,1.87
2019-01-11T14:30:41.171Z,1.78
2019-01-11T14:33:45.559Z,1.76
2019-01-11T14:36:49.993Z,1.68
2019-01-11T14:39:54.442Z,1.73
2019-01-11T14:42:59.035Z,1.80
2019-01-11T14:46:03.474Z,1.74
2019-01-11T14:49:07.904Z,1.58
2019-01-11T14:52:12.633Z,1.41
2019-01-11T14:55:17.404Z,1.56
2019-01-11T14:58:21.806Z,1.48
2019-01-11T15:01:26.521Z,1.17
2019-01-11T15:04:30.960Z,1.27
2019-01-11T15:07:35.490Z,1.12
2019-01-11T15:10:39.929Z,1.22
2019-01-11T15:13:44.373Z,1.35
2019-01-11T15:16:49.168Z,1.38
2019-01-11T15:19:53.881Z,1.49
2019-01-11T15:22:58.328Z,1.52
2019-01-11T15:26:03.043Z,1.49
2019-01-11T15:29:07.769Z,1.40
2019-01-11T15:32:12.515Z,1.37
2019-01-11T15:35:17.433Z,1.48
2019-01-11T15:38:21.853Z,1.39
2019-01-11T15:41:26.585Z,1.63
2019-01-11T15:44:31.014Z,1.60
2019-01-11T15:47:35.455Z,1.69
2019-01-11T15:50:52.640Z,1.70
2019-01-11T15:53:57.142Z,1.53
2019-01-11T15:57:01.573Z,1.47
2019-01-11T16:00:10.962Z,1.60
2019-01-11T16:03:15.678Z,1.64
2019-01-11T16:06:28.785Z,1.55
2019-01-11T16:09:56.386Z,1.58
2019-01-11T16:13:05.662Z,1.43
2019-01-11T16:16:14.712Z,1.29
2019-01-11T16:19:19.141Z,1.35
2019-01-11T16:22:23.579Z,1.55
2019-01-11T16:25:28.071Z,1.56
2019-01-11T16:28:32.949Z,1.41
2019-01-11T16:31:37.387Z,1.59
2019-01-11T16:34:41.822Z,1.71
2019-01-11T16:37:46.528Z,1.80
2019-01-11T16:40:50.957Z,1.71
2019-01-11T16:43:55.682Z,1.57
2019-01-11T16:47:02.527Z,1.57
2019-01-11T16:50:14.463Z,1.54
2019-01-11T16:53:18.892Z,1.60
2019-01-11T16:56:23.796Z,1.61
2019-01-11T16:59:28.238Z,1.52
2019-01-11T17:02:36.610Z,1.65
2019-01-11T17:05:39.127Z,1.84
2019-01-11T17:08:43.569Z,1.72
2019-01-11T17:11:47.984Z,1.66
2019-01-11T17:14:52.721Z,1.70
2019-01-11T17:17:57.152Z,1.67
2019-01-11T17:21:01.579Z,1.75
2019-01-11T17:24:06.386Z,1.69
2019-01-11T17:27:10.823Z,1.81
2019-01-11T17:30:17.197Z,1.74
2019-01-11T17:33:21.638Z,1.64
2019-01-11T17:36:26.340Z,1.54
2019-01-11T17:39:30.781Z,1.59
2019-01-11T17:42:35.213Z,1.64
2019-01-11T17:45:39.655Z,1.65
2019-01-11T17:48:44.094Z,1.69
2019-01-11T17:51:48.528Z,1.71
2019-01-11T17:54:52.966Z,1.81
2019-01-11T17:57:57.726Z,1.61
2019-01-11T18:01:02.172Z,1.63
2019-01-11T18:04:06.609Z,1.62
2019-01-11T18:07:11.040Z,1.55
2019-01-11T18:10:15.552Z,1.43
2019-01-11T18:13:20.278Z,1.42
2019-01-11T18:16:24.708Z,1.46
2019-01-11T18:19:29.401Z,1.54
2019-01-11T18:22:34.128Z,1.56
2019-01-11T18:25:38.568Z,1.51
2019-01-11T18:28:43.003Z,1.55
2019-01-11T18:31:47.430Z,1.57
2019-01-11T18:34:51.876Z,1.62
2019-01-11T18:37:56.319Z,1.64
2019-01-11T18:41:00.746Z,1.76
2019-01-11T18:44:05.448Z,1.81
2019-01-11T18:47:09.881Z,1.84
2019-01-11T18:50:21.108Z,1.87
2019-01-11T18:53:25.539Z,1.66
2019-01-11T18:56:30.269Z,1.48
2019-01-11T18:59:34.999Z,1.40
2019-01-11T19:02:39.487Z,1.31
2019-01-11T19:05:44.330Z,1.24
2019-01-11T19:08:48.704Z,1.25
2019-01-11T19:11:53.148Z,1.19
2019-01-11T19:14:57.650Z,1.31
2019-01-11T19:18:02.083Z,1.27
2019-01-11T19:21:06.688Z,1.22
2019-01-11T19:24:11.412Z,1.29
2019-01-11T19:27:15.850Z,1.29
2019-01-11T19:30:26.123Z,1.21
2019-01-11T19:33:30.548Z,1.26
2019-01-11T19:36:34.990Z,1.44
2019-01-11T19:39:39.428Z,1.45
2019-01-11T19:42:44.243Z,1.54
2019-01-11T19:45:49.027Z,1.54
2019-01-11T19:48:53.461Z,1.57
2019-01-11T19:51:57.907Z,1.59
2019-01-11T19:55:02.350Z,1.46
2019-01-11T19:58:07.133Z,1.46
2019-01-11T20:01:12.018Z,1.39
2019-01-11T20:04:16.402Z,1.36
2019-01-11T20:07:20.837Z,1.33
2019-01-11T20:10:29.574Z,1.39
2019-01-11T20:13:33.987Z,1.45
2019-01-11T20:16:38.565Z,1.66
2019-01-11T20:19:42.979Z,1.57
2019-01-11T20:22:47.486Z,1.45
2019-01-11T20:25:52.284Z,1.44
2019-01-11T20:28:57.013Z,1.38
2019-01-11T20:32:01.732Z,1.29
2019-01-11T20:35:07.999Z,1.24
2019-01-11T20:38:12.448Z,1.21
2019-01-11T20:41:16.963Z,1.28
2019-01-11T20:44:21.399Z,1.29
2019-01-11T20:47:26.027Z,1.25
2019-01-11T20:50:30.520Z,1.20
2019-01-11T20:53:41.370Z,1.20
2019-01-11T20:56:41.424Z,1.15
2019-01-11T20:59:45.928Z,1.15
2019-01-11T21:02:50.363Z,1.23
2019-01-11T21:05:54.800Z,1.36
2019-01-11T21:08:59.267Z,1.41
2019-01-11T21:12:03.700Z,1.43
2019-01-11T21:15:15.362Z,1.44
2019-01-11T21:18:20.078Z,1.51
2019-01-11T21:21:24.504Z,1.61
2019-01-11T21:24:29.217Z,1.64
2019-01-11T21:27:33.948Z,1.68
2019-01-11T21:30:38.385Z,1.68
2019-01-11T21:33:42.831Z,1.73
2019-01-11T21:36:47.278Z,1.76
2019-01-11T21:39:51.711Z,1.69
2019-01-11T21:43:12.163Z,1.66
2019-01-11T21:46:16.987Z,1.91
2019-01-11T21:49:21.719Z,1.93
2019-01-11T21:52:26.180Z,1.90
2019-01-11T21:55:30.865Z,1.81
2019-01-11T21:58:35.317Z,1.71
2019-01-11T22:01:39.760Z,1.68
2019-01-11T22:04:44.210Z,1.65
2019-01-11T22:07:48.655Z,1.63
2019-01-11T22:10:53.096Z,1.55
2019-01-11T22:13:57.926Z,1.47
2019-01-11T22:17:02.369Z,1.40
2019-01-11T22:20:12.009Z,1.68
2019-01-11T22:23:23.858Z,1.67
2019-01-11T22:26:22.725Z,1.59
2019-01-11T22:29:27.303Z,1.69
2019-01-11T22:32:31.845Z,1.72
2019-01-11T22:35:36.560Z,1.76
2019-01-11T22:38:41.303Z,1.91
2019-01-11T22:41:45.737Z,1.84
2019-01-11T22:44:50.446Z,1.93
2019-01-11T22:47:54.901Z,1.99
2019-01-11T22:50:59.337Z,2.04
2019-01-11T22:54:10.214Z,2.11
2019-01-11T22:57:10.205Z,2.09
2019-01-11T23:00:27.196Z,2.02
2019-01-11T23:03:39.979Z,1.97
2019-01-11T23:06:57.972Z,2.00
2019-01-11T23:10:03.315Z,1.95
2019-01-11T23:13:07.753Z,1.97
2019-01-11T23:16:17.129Z,2.11
2019-01-11T23:19:21.570Z,2.05
2019-01-11T23:22:26.005Z,2.11
2019-01-11T23:25:30.916Z,2.01
2019-01-11T23:28:35.360Z,2.01
2019-01-11T23:31:39.801Z,1.96
2019-01-11T23:34:44.293Z,1.91
2019-01-11T23:37:49.076Z,1.96
2019-01-11T23:40:53.526Z,1.89
2019-01-11T23:43:57.963Z,1.87
2019-01-11T23:47:02.397Z,1.88
2019-01-11T23:50:11.552Z,1.92
2019-01-11T23:53:15.981Z,1.90
2019-01-11T23:56:20.409Z,1.92
2019-01-11T23:59:24.855Z,1.93
